createdAt,value
2018-02-20T15:24:17.074Z,26.90
2018-02-20T15:26:48.995Z,23.90
2018-02-20T15:29:20.318Z,26.80
2018-02-20T15:31:51.573Z,29.30
2018-02-20T15:34:22.761Z,26.07
2018-02-20T15:36:54.061Z,27.80
2018-02-20T15:39:25.345Z,28.03
2018-02-20T15:41:56.544Z,28.63
2018-02-20T15:44:27.751Z,28.50
2018-02-20T15:46:59.686Z,24.13
2018-02-20T15:49:31.039Z,25.23
2018-02-20T15:52:02.694Z,27.23
2018-02-20T15:54:34.706Z,30.23
2018-02-20T15:57:05.919Z,27.70
2018-02-20T15:59:37.929Z,27.73
2018-02-20T16:02:09.145Z,26.20
2018-02-20T16:04:40.547Z,24.60
2018-02-20T16:07:12.054Z,28.63
2018-02-20T16:09:43.274Z,24.20
2018-02-20T16:12:14.498Z,26.43
2018-02-20T16:14:45.767Z,25.60
2018-02-20T16:17:17.868Z,46.90
2018-02-20T16:19:49.175Z,25.73
2018-02-20T16:22:21.249Z,23.33
2018-02-20T16:24:52.519Z,22.37
2018-02-20T16:27:23.716Z,24.53
2018-02-20T16:29:54.968Z,23.10
2018-02-20T16:32:26.173Z,26.33
2018-02-20T16:34:57.701Z,21.80
2018-02-20T16:37:28.898Z,23.67
2018-02-20T16:40:00.982Z,23.73
2018-02-20T16:42:32.416Z,25.93
2018-02-20T16:45:03.706Z,29.90
2018-02-20T16:47:34.891Z,26.87
2018-02-20T16:50:07.047Z,29.10
2018-02-20T16:52:39.046Z,23.83
2018-02-20T16:55:10.276Z,25.77
2018-02-20T16:57:42.210Z,23.07
2018-02-20T17:00:13.470Z,29.53
2018-02-20T17:02:45.413Z,26.93
2018-02-20T17:05:16.655Z,26.20
2018-02-20T17:07:47.864Z,25.53
2018-02-20T17:10:19.154Z,24.60
2018-02-20T17:12:50.437Z,27.67
2018-02-20T17:15:21.656Z,30.93
2018-02-20T17:17:53.622Z,26.40
2018-02-20T17:20:25.625Z,26.30
2018-02-20T17:22:57.069Z,33.63
2018-02-20T17:25:29.005Z,27.27
2018-02-20T17:28:00.956Z,24.57
2018-02-20T17:30:33.305Z,28.17
2018-02-20T17:33:04.497Z,26.90
2018-02-20T17:35:35.743Z,34.90
2018-02-20T17:38:06.931Z,34.30
2018-02-20T17:40:38.316Z,31.50
2018-02-20T17:43:09.585Z,31.57
2018-02-20T17:45:40.784Z,30.43
2018-02-20T17:48:11.996Z,29.87
2018-02-20T17:50:43.259Z,28.40
2018-02-20T17:53:14.523Z,30.93
2018-02-20T17:55:46.485Z,27.87
2018-02-20T17:58:18.416Z,28.30
2018-02-20T18:00:49.856Z,27.20
2018-02-20T18:03:21.213Z,27.60
2018-02-20T18:05:52.369Z,31.43
2018-02-20T18:08:23.670Z,31.13
2018-02-20T18:10:54.980Z,29.57
2018-02-20T18:13:27.019Z,31.03
2018-02-20T18:15:58.200Z,42.00
2018-02-20T18:18:29.438Z,32.73
2018-02-20T18:21:01.486Z,41.63
2018-02-20T18:23:32.721Z,36.20
2018-02-20T18:26:03.998Z,33.13
2018-02-20T18:28:35.490Z,31.30
2018-02-20T18:31:06.912Z,36.77
2018-02-20T18:33:38.075Z,37.83
2018-02-20T18:36:09.337Z,38.33
2018-02-20T18:38:40.528Z,38.50
2018-02-20T18:41:12.082Z,39.67
2018-02-20T18:43:43.431Z,44.33
2018-02-20T18:46:14.918Z,40.63
2018-02-20T18:48:46.214Z,40.80
2018-02-20T18:51:17.456Z,36.37
2018-02-20T18:53:48.688Z,40.57
2018-02-20T18:56:19.896Z,34.93
2018-02-20T18:58:51.080Z,35.80
2018-02-20T19:01:23.416Z,40.23
2018-02-20T19:03:54.624Z,35.20
2018-02-20T19:06:25.893Z,32.77
2018-02-20T19:08:57.177Z,41.90
2018-02-20T19:11:28.388Z,37.97
2018-02-20T19:13:59.619Z,37.60
2018-02-20T19:16:31.569Z,36.63
2018-02-20T19:19:02.792Z,39.50
2018-02-20T19:21:34.849Z,39.63
2018-02-20T19:24:06.073Z,40.13
2018-02-20T19:26:38.032Z,38.63
2018-02-20T19:29:09.291Z,39.00
2018-02-20T19:31:41.206Z,41.67
2018-02-20T19:34:12.725Z,34.73
2018-02-20T19:36:43.968Z,37.40
2018-02-20T19:39:15.209Z,41.23
2018-02-20T19:41:46.495Z,42.83
2018-02-20T19:44:17.704Z,37.70
2018-02-20T19:46:48.883Z,39.07
2018-02-20T19:49:20.369Z,39.20
2018-02-20T19:51:52.306Z,37.67
2018-02-20T19:54:23.556Z,40.90
2018-02-20T19:56:54.789Z,37.67
2018-02-20T19:59:25.987Z,41.33
2018-02-20T20:01:57.280Z,38.87
2018-02-20T20:04:28.500Z,40.30
2018-02-20T20:06:59.695Z,40.60
2018-02-20T20:09:31.789Z,42.63
2018-02-20T20:12:03.016Z,38.97
2018-02-20T20:14:34.284Z,38.27
2018-02-20T20:17:05.469Z,36.70
2018-02-20T20:19:36.706Z,43.67
2018-02-20T20:22:07.954Z,43.03
2018-02-20T20:24:39.560Z,38.23
2018-02-20T20:27:11.845Z,43.43
2018-02-20T20:29:43.071Z,37.93
2018-02-20T20:32:14.305Z,41.43
2018-02-20T20:34:45.505Z,43.50
2018-02-20T20:37:16.719Z,42.47
2018-02-20T20:39:47.887Z,48.23
2018-02-20T20:42:19.146Z,44.27
2018-02-20T20:44:50.368Z,38.73
2018-02-20T20:47:21.589Z,47.37
2018-02-20T20:49:52.911Z,44.43
2018-02-20T20:52:24.923Z,45.70
2018-02-20T20:54:56.111Z,41.43
2018-02-20T20:57:30.752Z,42.13
2018-02-20T21:00:02.389Z,43.27
2018-02-20T21:02:34.411Z,42.30
2018-02-20T21:05:06.097Z,40.77
2018-02-20T21:07:37.396Z,44.07
2018-02-20T21:10:09.399Z,42.90
2018-02-20T21:12:41.849Z,43.90
2018-02-20T21:15:14.760Z,46.83
2018-02-20T21:17:46.662Z,45.53
2018-02-20T21:20:17.989Z,51.70
2018-02-20T21:22:49.542Z,42.23
2018-02-20T21:25:21.659Z,46.27
2018-02-20T21:27:53.068Z,41.20
2018-02-20T21:30:24.896Z,49.50
2018-02-20T21:32:57.048Z,43.37
2018-02-20T21:35:28.980Z,50.00
2018-02-20T21:38:00.555Z,47.77
2018-02-20T21:40:31.769Z,46.63
2018-02-20T21:43:02.978Z,49.07
2018-02-20T21:45:34.940Z,49.43
2018-02-20T21:48:06.861Z,57.03
2018-02-20T21:50:38.653Z,46.43
2018-02-20T21:53:09.923Z,50.50
2018-02-20T21:55:41.152Z,47.17
2018-02-20T21:58:12.636Z,51.33
2018-02-20T22:00:44.076Z,45.97
2018-02-20T22:03:16.133Z,50.20
2018-02-20T22:05:48.316Z,49.30
2018-02-20T22:08:20.175Z,47.67
2018-02-20T22:10:52.502Z,45.63
2018-02-20T22:13:24.190Z,47.03
2018-02-20T22:15:55.666Z,43.93
2018-02-20T22:18:28.018Z,47.73
2018-02-20T22:20:59.865Z,46.20
2018-02-20T22:23:32.215Z,45.90
2018-02-20T22:26:03.646Z,47.87
2018-02-20T22:28:35.760Z,51.30
2018-02-20T22:31:07.215Z,46.33
2018-02-20T22:33:38.720Z,50.60
2018-02-20T22:36:10.628Z,47.20
2018-02-20T22:38:41.893Z,41.17
2018-02-20T22:41:13.119Z,44.57
2018-02-20T22:43:44.352Z,48.87
2018-02-20T22:46:15.505Z,49.60
2018-02-20T22:48:46.747Z,64.17
2018-02-20T22:51:18.035Z,53.33
2018-02-20T22:53:50.041Z,45.63
2018-02-20T22:56:21.291Z,46.63
2018-02-20T22:58:52.471Z,41.97
2018-02-20T23:01:24.664Z,50.27
2018-02-20T23:03:56.057Z,42.07
2018-02-20T23:06:27.288Z,46.90
2018-02-20T23:08:58.545Z,47.87
2018-02-20T23:11:42.096Z,45.23
2018-02-20T23:14:13.312Z,44.10
2018-02-20T23:16:44.543Z,42.33
2018-02-20T23:19:15.772Z,48.40
2018-02-20T23:21:46.981Z,44.93
2018-02-20T23:24:18.292Z,46.67
2018-02-20T23:26:49.509Z,45.03
2018-02-20T23:29:20.697Z,41.17
2018-02-20T23:31:51.881Z,44.27
2018-02-20T23:34:24.003Z,40.57
2018-02-20T23:36:55.213Z,43.23
2018-02-20T23:39:26.416Z,48.27
2018-02-20T23:41:57.614Z,41.60
2018-02-20T23:44:28.881Z,44.03
2018-02-20T23:47:00.043Z,44.97
2018-02-20T23:49:32.292Z,40.30
2018-02-20T23:52:03.558Z,41.67
2018-02-20T23:54:35.496Z,41.50
2018-02-20T23:57:06.714Z,40.37
2018-02-20T23:59:37.923Z,36.97
